createdAt,value
2018-02-05T00:00:28.983Z,0.00
2018-02-05T00:02:56.471Z,-0.12
2018-02-05T00:05:23.936Z,-0.15
2018-02-05T00:07:51.414Z,-0.19
2018-02-05T00:10:18.878Z,-0.24
2018-02-05T00:12:46.370Z,-0.24
2018-02-05T00:15:13.834Z,-0.31
2018-02-05T00:17:41.402Z,-0.32
2018-02-05T00:20:08.867Z,-0.29
2018-02-05T00:22:36.361Z,-0.22
2018-02-05T00:25:03.839Z,-0.19
2018-02-05T00:27:31.343Z,-0.15
2018-02-05T00:29:58.807Z,-0.13
2018-02-05T00:32:26.299Z,-0.18
2018-02-05T00:34:53.771Z,-0.28
2018-02-05T00:37:21.246Z,-0.41
2018-02-05T00:39:48.726Z,-0.47
2018-02-05T00:42:16.187Z,-0.53
2018-02-05T00:44:43.674Z,-0.49
2018-02-05T00:47:11.147Z,-0.56
2018-02-05T00:49:38.627Z,-0.59
2018-02-05T00:52:06.107Z,-0.55
2018-02-05T00:54:33.590Z,-0.55
2018-02-05T00:57:01.080Z,-0.50
2018-02-05T00:59:28.567Z,-0.45
2018-02-05T01:01:56.030Z,-0.39
2018-02-05T01:04:23.525Z,-0.42
2018-02-05T01:06:50.999Z,-0.47
2018-02-05T01:09:18.492Z,-0.48
2018-02-05T01:11:45.959Z,-0.48
2018-02-05T01:14:13.447Z,-0.47
2018-02-05T01:16:40.924Z,-0.48
2018-02-05T01:19:08.415Z,-0.52
2018-02-05T01:21:35.882Z,-0.52
2018-02-05T01:24:03.370Z,-0.48
2018-02-05T01:26:30.835Z,-0.48
2018-02-05T01:28:58.322Z,-0.46
2018-02-05T01:31:25.800Z,-0.43
2018-02-05T01:33:53.287Z,-0.45
2018-02-05T01:36:20.766Z,-0.42
2018-02-05T01:38:48.255Z,-0.44
2018-02-05T01:41:15.719Z,-0.51
2018-02-05T01:43:43.227Z,-0.56
2018-02-05T01:46:10.696Z,-0.66
2018-02-05T01:48:38.182Z,-0.76
2018-02-05T01:51:05.653Z,-0.77
2018-02-05T01:53:33.151Z,-0.74
2018-02-05T01:56:01.070Z,-0.72
2018-02-05T01:58:28.607Z,-0.82
2018-02-05T02:00:56.077Z,-0.83
2018-02-05T02:03:23.546Z,-0.84
2018-02-05T02:05:51.047Z,-0.85
2018-02-05T02:08:18.523Z,-0.81
2018-02-05T02:10:46.019Z,-0.69
2018-02-05T02:13:13.495Z,-0.61
2018-02-05T02:15:40.986Z,-0.53
2018-02-05T02:18:08.450Z,-0.45
2018-02-05T02:20:35.938Z,-0.36
2018-02-05T02:23:03.407Z,-0.31
2018-02-05T02:25:30.892Z,-0.27
2018-02-05T02:27:58.354Z,-0.24
2018-02-05T02:30:25.830Z,-0.21
2018-02-05T02:32:53.292Z,-0.22
2018-02-05T02:35:20.767Z,-0.17
2018-02-05T02:37:48.231Z,-0.18
2018-02-05T02:40:15.711Z,-0.13
2018-02-05T02:42:43.169Z,-0.11
2018-02-05T02:45:10.655Z,-0.08
2018-02-05T02:47:38.118Z,-0.03
2018-02-05T02:50:05.595Z,-0.03
2018-02-05T02:52:33.056Z,0.00
2018-02-05T02:55:00.543Z,-0.03
2018-02-05T02:57:28.042Z,-0.02
2018-02-05T02:59:55.527Z,-0.02
2018-02-05T03:02:22.990Z,-0.08
2018-02-05T03:04:50.462Z,-0.05
2018-02-05T03:07:17.928Z,-0.08
2018-02-05T03:09:45.426Z,-0.13
2018-02-05T03:12:12.886Z,-0.20
2018-02-05T03:14:40.361Z,-0.22
2018-02-05T03:17:07.885Z,-0.24
2018-02-05T03:19:35.370Z,-0.23
2018-02-05T03:22:02.825Z,-0.20
2018-02-05T03:24:30.305Z,-0.19
2018-02-05T03:26:57.786Z,-0.17
2018-02-05T03:29:25.243Z,-0.14
2018-02-05T03:31:52.723Z,-0.13
2018-02-05T03:34:20.190Z,-0.12
2018-02-05T03:36:47.666Z,-0.08
2018-02-05T03:39:15.124Z,-0.11
2018-02-05T03:41:42.598Z,-0.15
2018-02-05T03:44:10.059Z,-0.07
2018-02-05T03:46:37.546Z,-0.10
2018-02-05T03:49:05.015Z,-0.11
2018-02-05T03:51:32.494Z,-0.09
2018-02-05T03:53:59.952Z,-0.21
2018-02-05T03:56:27.430Z,-0.32
2018-02-05T03:58:54.890Z,-0.36
2018-02-05T04:01:22.370Z,-0.40
2018-02-05T04:03:49.841Z,-0.37
2018-02-05T04:06:17.331Z,-0.38
2018-02-05T04:08:44.795Z,-0.38
2018-02-05T04:11:12.270Z,-0.37
2018-02-05T04:13:39.736Z,-0.39
2018-02-05T04:16:07.216Z,-0.31
2018-02-05T04:18:34.684Z,-0.30
2018-02-05T04:21:02.167Z,-0.27
2018-02-05T04:23:29.622Z,-0.24
2018-02-05T04:25:57.111Z,-0.18
2018-02-05T04:28:24.571Z,-0.15
2018-02-05T04:30:52.054Z,-0.14
2018-02-05T04:33:19.539Z,-0.10
2018-02-05T04:35:47.015Z,-0.06
2018-02-05T04:38:14.475Z,-0.05
2018-02-05T04:40:41.951Z,-0.03
2018-02-05T04:43:09.406Z,-0.01
2018-02-05T04:45:36.892Z,0.01
2018-02-05T04:48:04.368Z,0.01
2018-02-05T04:50:31.822Z,0.00
2018-02-05T04:52:59.307Z,0.01
2018-02-05T04:55:26.770Z,0.03
2018-02-05T04:57:54.248Z,0.03
2018-02-05T05:00:21.735Z,0.09
2018-02-05T05:02:49.207Z,0.14
2018-02-05T05:05:16.671Z,0.08
2018-02-05T05:07:44.146Z,0.06
2018-02-05T05:10:11.602Z,0.08
2018-02-05T05:12:39.074Z,0.08
2018-02-05T05:15:06.530Z,0.05
2018-02-05T05:17:34.002Z,0.03
2018-02-05T05:20:01.459Z,0.05
2018-02-05T05:22:28.934Z,0.02
2018-02-05T05:24:56.389Z,0.02
2018-02-05T05:27:23.876Z,-0.01
2018-02-05T05:29:51.344Z,0.01
2018-02-05T05:32:18.827Z,0.02
2018-02-05T05:34:46.282Z,0.01
2018-02-05T05:37:13.770Z,0.08
2018-02-05T05:39:41.222Z,0.10
2018-02-05T05:42:08.714Z,0.06
2018-02-05T05:44:36.174Z,0.14
2018-02-05T05:47:03.650Z,0.08
2018-02-05T05:49:31.107Z,0.03
2018-02-05T05:51:58.591Z,0.02
2018-02-05T05:54:26.071Z,-0.01
2018-02-05T05:56:53.555Z,-0.02
2018-02-05T05:59:21.024Z,-0.02
2018-02-05T06:01:48.511Z,-0.05
2018-02-05T06:04:15.975Z,-0.05
2018-02-05T06:06:43.468Z,-0.01
2018-02-05T06:09:10.935Z,-0.04
2018-02-05T06:11:38.403Z,-0.01
2018-02-05T06:14:05.879Z,0.01
2018-02-05T06:16:33.339Z,0.07
2018-02-05T06:19:00.819Z,0.00
2018-02-05T06:21:28.285Z,-0.04
2018-02-05T06:23:55.775Z,-0.02
2018-02-05T06:26:23.239Z,-0.01
2018-02-05T06:28:50.719Z,0.02
2018-02-05T06:31:18.171Z,0.01
2018-02-05T06:33:45.642Z,0.05
2018-02-05T06:36:13.115Z,0.02
2018-02-05T06:38:40.600Z,0.06
2018-02-05T06:41:08.057Z,0.04
2018-02-05T06:43:35.539Z,0.03
2018-02-05T06:46:03.004Z,0.03
2018-02-05T06:48:30.474Z,0.05
2018-02-05T06:51:09.763Z,0.07
2018-02-05T06:53:48.944Z,0.06
2018-02-05T06:56:24.266Z,0.06
2018-02-05T06:58:51.747Z,0.03
2018-02-05T07:01:19.210Z,0.00
2018-02-05T07:03:46.687Z,0.06
2018-02-05T07:06:14.478Z,-0.03
2018-02-05T07:08:41.973Z,-0.09
2018-02-05T07:11:09.443Z,-0.18
2018-02-05T07:13:36.928Z,-0.33
2018-02-05T07:16:04.404Z,-0.48
2018-02-05T07:18:31.887Z,-0.55
2018-02-05T07:20:59.347Z,-0.60
2018-02-05T07:23:26.826Z,-0.68
2018-02-05T07:25:54.295Z,-0.69
2018-02-05T07:28:21.775Z,-0.73
2018-02-05T07:30:49.242Z,-0.75
2018-02-05T07:33:16.735Z,-0.77
2018-02-05T07:35:44.211Z,-0.81
2018-02-05T07:38:11.702Z,-0.80
2018-02-05T07:40:39.179Z,-0.79
2018-02-05T07:43:06.676Z,-0.76
2018-02-05T07:45:34.147Z,-0.71
2018-02-05T07:48:01.615Z,-0.71
2018-02-05T07:50:29.104Z,-0.65
2018-02-05T07:52:56.571Z,-0.62
2018-02-05T07:55:24.069Z,-0.55
2018-02-05T07:57:51.546Z,-0.52
2018-02-05T08:00:19.027Z,-0.48
2018-02-05T08:02:46.497Z,-0.41
2018-02-05T08:05:13.980Z,-0.40
2018-02-05T08:07:41.442Z,-0.33
2018-02-05T08:10:08.923Z,-0.29
2018-02-05T08:12:36.396Z,-0.27
2018-02-05T08:15:03.877Z,-0.21
2018-02-05T08:17:31.350Z,-0.12
2018-02-05T08:19:58.907Z,0.01
2018-02-05T08:22:26.370Z,0.09
2018-02-05T08:24:53.859Z,0.15
2018-02-05T08:27:21.318Z,0.15
2018-02-05T08:29:48.811Z,0.22
2018-02-05T08:32:16.273Z,0.22
2018-02-05T08:34:43.749Z,0.29
2018-02-05T08:37:11.199Z,0.37
2018-02-05T08:39:38.680Z,0.43
2018-02-05T08:42:06.142Z,0.52
2018-02-05T08:44:33.614Z,0.50
2018-02-05T08:47:01.074Z,0.53
2018-02-05T08:49:28.554Z,0.61
2018-02-05T08:51:56.016Z,0.72
2018-02-05T08:54:23.494Z,0.80
2018-02-05T08:56:50.950Z,0.75
2018-02-05T08:59:18.431Z,0.81
2018-02-05T09:01:45.891Z,0.74
2018-02-05T09:04:13.358Z,0.81
2018-02-05T09:06:40.820Z,0.83
2018-02-05T09:09:08.283Z,0.87
2018-02-05T09:11:35.763Z,0.78
2018-02-05T09:14:03.222Z,0.84
2018-02-05T09:16:30.707Z,0.91
2018-02-05T09:18:58.171Z,0.97
2018-02-05T09:21:25.642Z,0.98
2018-02-05T09:23:53.110Z,0.94
2018-02-05T09:26:20.592Z,1.10
2018-02-05T09:28:48.055Z,1.19
2018-02-05T09:31:15.531Z,1.27
2018-02-05T09:33:42.996Z,1.37
2018-02-05T09:36:10.471Z,1.33
2018-02-05T09:38:37.950Z,1.41
2018-02-05T09:41:05.439Z,1.40
2018-02-05T09:43:33.357Z,1.49
2018-02-05T09:46:00.866Z,1.56
2018-02-05T09:48:28.328Z,1.55
2018-02-05T09:50:55.820Z,1.59
2018-02-05T09:53:23.283Z,1.62
2018-02-05T09:55:50.762Z,1.59
2018-02-05T09:58:18.221Z,1.58
2018-02-05T10:00:47.690Z,1.62
2018-02-05T10:03:15.151Z,1.69
2018-02-05T10:05:42.634Z,1.79
2018-02-05T10:08:10.086Z,1.84
2018-02-05T10:10:37.575Z,1.84
2018-02-05T10:13:05.039Z,1.83
2018-02-05T10:15:32.513Z,1.91
2018-02-05T10:17:59.970Z,1.99
2018-02-05T10:20:27.446Z,1.87
2018-02-05T10:25:23.146Z,1.94
2018-02-05T10:27:50.602Z,2.03
2018-02-05T10:30:18.080Z,2.02
2018-02-05T10:32:45.543Z,2.09
2018-02-05T10:35:13.042Z,2.24
2018-02-05T10:37:40.531Z,2.25
2018-02-05T10:40:07.987Z,2.27
2018-02-05T10:42:35.466Z,2.39
2018-02-05T10:45:02.932Z,2.55
2018-02-05T10:47:30.410Z,2.54
2018-02-05T10:49:57.878Z,2.74
2018-02-05T10:52:25.352Z,2.72
2018-02-05T10:54:52.811Z,2.64
2018-02-05T10:57:20.287Z,2.82
2018-02-05T10:59:47.749Z,2.86
2018-02-05T11:02:15.754Z,3.05
2018-02-05T11:04:43.222Z,3.11
2018-02-05T11:07:10.702Z,3.04
2018-02-05T11:09:38.155Z,3.14
2018-02-05T11:12:05.635Z,3.07
2018-02-05T11:14:33.096Z,3.05
2018-02-05T11:17:00.580Z,3.04
2018-02-05T11:19:28.046Z,3.14
2018-02-05T11:21:55.546Z,3.19
2018-02-05T11:24:23.023Z,3.24
2018-02-05T11:26:50.524Z,3.27
2018-02-05T11:29:17.990Z,3.35
2018-02-05T11:31:45.475Z,3.30
2018-02-05T11:34:13.007Z,3.40
2018-02-05T11:36:40.487Z,3.31
2018-02-05T11:41:34.787Z,3.51
2018-02-05T11:44:02.251Z,3.63
2018-02-05T11:46:29.732Z,3.45
2018-02-05T11:48:57.193Z,3.71
2018-02-05T11:51:24.691Z,3.83
2018-02-05T11:53:52.151Z,3.91
2018-02-05T11:56:19.630Z,3.88
2018-02-05T11:58:47.086Z,3.98
2018-02-05T12:01:14.546Z,3.97
2018-02-05T12:03:42.046Z,3.96
2018-02-05T12:06:09.535Z,4.01
2018-02-05T12:08:37.343Z,4.11
2018-02-05T12:11:04.806Z,4.29
2018-02-05T12:13:32.288Z,4.17
2018-02-05T12:15:59.756Z,4.31
2018-02-05T12:18:27.231Z,4.35
2018-02-05T12:20:54.691Z,4.35
2018-02-05T12:23:22.174Z,4.51
2018-02-05T12:25:49.635Z,4.58
2018-02-05T12:28:17.106Z,4.56
2018-02-05T12:30:44.567Z,4.67
2018-02-05T12:33:12.955Z,4.82
2018-02-05T12:35:40.448Z,4.73
2018-02-05T12:38:07.919Z,4.75
2018-02-05T12:40:35.375Z,4.95
2018-02-05T12:43:02.858Z,4.60
2018-02-05T12:45:30.323Z,4.62
2018-02-05T12:47:57.807Z,4.71
2018-02-05T12:50:25.271Z,4.74
2018-02-05T12:52:52.755Z,4.72
2018-02-05T12:55:20.209Z,4.86
2018-02-05T12:57:47.688Z,4.86
2018-02-05T13:03:41.862Z,4.87
2018-02-05T13:06:09.711Z,4.85
2018-02-05T13:08:37.187Z,4.96
2018-02-05T13:11:04.753Z,5.12
2018-02-05T13:13:32.228Z,5.31
2018-02-05T13:15:59.688Z,5.35
2018-02-05T13:18:27.227Z,5.38
2018-02-05T13:20:54.643Z,5.52
2018-02-05T13:23:22.116Z,5.38
2018-02-05T13:25:49.575Z,5.28
2018-02-05T13:28:17.057Z,5.42
2018-02-05T13:30:44.515Z,5.25
2018-02-05T13:33:11.994Z,5.24
2018-02-05T13:35:39.619Z,5.46
2018-02-05T13:38:07.887Z,5.36
2018-02-05T13:40:35.353Z,5.48
2018-02-05T13:43:02.842Z,5.59
2018-02-05T13:45:30.300Z,5.53
2018-02-05T13:47:57.775Z,5.86
2018-02-05T13:50:25.223Z,5.91
2018-02-05T13:52:52.719Z,6.37
2018-02-05T13:55:20.207Z,6.96
2018-02-05T13:57:47.691Z,6.94
2018-02-05T14:00:15.867Z,7.33
2018-02-05T14:02:43.323Z,6.58
2018-02-05T14:05:10.829Z,6.65
2018-02-05T14:07:38.274Z,7.06
2018-02-05T14:10:05.744Z,8.32
2018-02-05T14:12:33.201Z,9.51
2018-02-05T14:15:00.676Z,9.77
2018-02-05T14:17:28.134Z,10.47
2018-02-05T14:19:55.611Z,9.46
2018-02-05T14:22:23.121Z,10.01
2018-02-05T14:24:50.618Z,10.19
2018-02-05T14:27:18.086Z,10.86
2018-02-05T14:29:45.587Z,10.60
2018-02-05T14:32:13.042Z,10.17
2018-02-05T14:34:40.531Z,10.44
2018-02-05T14:37:07.989Z,9.96
2018-02-05T14:39:35.481Z,10.62
2018-02-05T14:42:02.941Z,9.53
2018-02-05T14:44:30.423Z,9.18
2018-02-05T14:46:57.882Z,10.25
2018-02-05T14:49:25.363Z,10.61
2018-02-05T14:51:52.815Z,9.74
2018-02-05T14:54:20.298Z,10.42
2018-02-05T14:56:47.762Z,10.20
2018-02-05T14:59:15.250Z,9.88
2018-02-05T15:01:42.707Z,9.26
2018-02-05T15:04:10.191Z,10.65
2018-02-05T15:06:37.644Z,9.75
2018-02-05T15:09:05.116Z,9.45
2018-02-05T15:11:32.575Z,9.05
2018-02-05T15:14:00.086Z,8.22
2018-02-05T15:16:27.531Z,7.05
2018-02-05T15:18:55.012Z,7.07
2018-02-05T15:21:22.470Z,6.68
2018-02-05T15:23:49.990Z,6.34
2018-02-05T15:26:17.458Z,5.77
2018-02-05T15:28:44.910Z,5.58
2018-02-05T15:31:12.379Z,5.20
2018-02-05T15:33:39.855Z,4.94
2018-02-05T15:36:07.413Z,4.82
2018-02-05T15:38:34.862Z,4.62
2018-02-05T15:41:02.338Z,4.34
2018-02-05T15:43:29.795Z,4.39
2018-02-05T15:45:57.280Z,4.25
2018-02-05T15:48:24.735Z,4.02
2018-02-05T15:50:52.215Z,3.84
2018-02-05T15:53:19.668Z,3.83
2018-02-05T15:55:47.378Z,3.58
2018-02-05T15:58:14.826Z,3.33
2018-02-05T16:00:42.304Z,3.30
2018-02-05T16:03:09.755Z,3.10
2018-02-05T16:05:37.240Z,3.02
2018-02-05T16:08:04.691Z,2.86
2018-02-05T16:10:32.167Z,2.67
2018-02-05T16:12:59.630Z,2.47
2018-02-05T16:15:27.110Z,2.41
2018-02-05T16:17:54.566Z,2.20
2018-02-05T16:20:22.071Z,2.03
2018-02-05T16:22:49.527Z,2.01
2018-02-05T16:25:16.994Z,2.01
2018-02-05T16:27:44.455Z,1.98
2018-02-05T16:30:11.927Z,1.84
2018-02-05T16:32:39.379Z,1.77
2018-02-05T16:35:06.863Z,1.72
2018-02-05T16:37:34.326Z,1.77
2018-02-05T16:40:01.807Z,1.68
2018-02-05T16:42:29.271Z,1.59
2018-02-05T16:44:56.763Z,1.51
2018-02-05T16:47:24.223Z,1.52
2018-02-05T16:49:51.746Z,1.50
2018-02-05T16:52:19.203Z,1.43
2018-02-05T16:54:46.658Z,1.50
2018-02-05T16:57:14.128Z,1.62
2018-02-05T16:59:41.585Z,1.62
2018-02-05T17:02:09.060Z,1.59
2018-02-05T17:04:36.506Z,1.67
2018-02-05T17:07:03.978Z,1.52
2018-02-05T17:09:31.431Z,1.41
2018-02-05T17:11:58.903Z,1.47
2018-02-05T17:14:26.371Z,1.42
2018-02-05T17:16:53.851Z,1.33
2018-02-05T17:19:21.308Z,1.38
2018-02-05T17:21:48.792Z,1.27
2018-02-05T17:24:16.262Z,1.26
2018-02-05T17:26:43.747Z,1.26
2018-02-05T17:29:11.203Z,1.29
2018-02-05T17:31:38.675Z,1.35
2018-02-05T17:34:06.140Z,1.31
2018-02-05T17:36:33.623Z,1.28
2018-02-05T17:39:01.074Z,1.20
2018-02-05T17:41:28.555Z,1.14
2018-02-05T17:43:56.015Z,1.07
2018-02-05T17:46:23.499Z,1.14
2018-02-05T17:48:50.963Z,1.08
2018-02-05T17:51:18.435Z,0.98
2018-02-05T17:53:45.890Z,0.86
2018-02-05T17:56:13.366Z,0.94
2018-02-05T17:58:40.818Z,0.89
2018-02-05T18:01:08.299Z,0.91
2018-02-05T18:03:35.753Z,0.91
2018-02-05T18:06:03.243Z,0.87
2018-02-05T18:08:30.700Z,0.91
2018-02-05T18:10:58.182Z,0.80
2018-02-05T18:13:25.635Z,0.83
2018-02-05T18:15:53.118Z,0.70
2018-02-05T18:18:20.578Z,0.74
2018-02-05T18:20:48.042Z,0.72
2018-02-05T18:23:15.530Z,0.63
2018-02-05T18:25:42.987Z,0.55
2018-02-05T18:28:10.462Z,0.62
2018-02-05T18:30:37.931Z,0.54
2018-02-05T18:33:05.411Z,0.51
2018-02-05T18:35:32.891Z,0.35
2018-02-05T18:38:00.367Z,0.30
2018-02-05T18:40:27.834Z,0.23
2018-02-05T18:42:55.311Z,0.16
2018-02-05T18:45:22.778Z,0.16
2018-02-05T18:47:50.497Z,0.15
2018-02-05T18:50:17.974Z,0.10
2018-02-05T18:52:45.463Z,0.16
2018-02-05T18:55:12.964Z,0.17
2018-02-05T18:57:40.443Z,0.14
2018-02-05T19:00:19.896Z,0.12
2018-02-05T19:02:47.384Z,0.11
2018-02-05T19:05:14.852Z,0.16
2018-02-05T19:07:43.277Z,0.12
2018-02-05T19:10:10.792Z,0.15
2018-02-05T19:12:38.325Z,0.11
2018-02-05T19:15:05.783Z,0.03
2018-02-05T19:17:33.258Z,-0.05
2018-02-05T19:20:00.714Z,-0.05
2018-02-05T19:22:28.649Z,-0.10
2018-02-05T19:24:56.130Z,-0.07
2018-02-05T19:27:23.623Z,-0.16
2018-02-05T19:29:51.091Z,-0.20
2018-02-05T19:32:18.568Z,-0.20
2018-02-05T19:34:46.064Z,-0.24
2018-02-05T19:37:13.524Z,-0.36
2018-02-05T19:39:41.031Z,-0.43
2018-02-05T19:42:08.498Z,-0.52
2018-02-05T19:44:35.979Z,-0.50
2018-02-05T19:47:03.451Z,-0.53
2018-02-05T19:49:30.947Z,-0.62
2018-02-05T19:51:58.424Z,-0.62
2018-02-05T19:54:25.919Z,-0.73
2018-02-05T19:56:53.384Z,-0.75
2018-02-05T19:59:20.872Z,-0.79
2018-02-05T20:01:48.351Z,-0.81
2018-02-05T20:04:15.839Z,-0.90
2018-02-05T20:06:43.307Z,-0.93
2018-02-05T20:09:10.794Z,-0.97
2018-02-05T20:11:38.259Z,-1.02
2018-02-05T20:14:05.750Z,-1.04
2018-02-05T20:16:33.211Z,-1.05
2018-02-05T20:19:00.700Z,-1.01
2018-02-05T20:21:28.168Z,-1.06
2018-02-05T20:23:55.660Z,-1.11
2018-02-05T20:26:23.122Z,-1.14
2018-02-05T20:28:50.617Z,-1.11
2018-02-05T20:31:18.084Z,-1.03
2018-02-05T20:33:45.570Z,-1.01
2018-02-05T20:36:13.030Z,-1.00
2018-02-05T20:38:40.519Z,-0.96
2018-02-05T20:41:07.995Z,-0.97
2018-02-05T20:43:35.474Z,-0.99
2018-02-05T20:46:02.952Z,-1.08
2018-02-05T20:48:30.441Z,-1.13
2018-02-05T20:50:57.911Z,-1.04
2018-02-05T20:53:25.411Z,-1.10
2018-02-05T20:55:52.886Z,-1.15
2018-02-05T20:58:20.360Z,-1.18
2018-02-05T21:00:47.842Z,-1.17
2018-02-05T21:03:15.315Z,-1.20
2018-02-05T21:05:42.806Z,-1.25
2018-02-05T21:08:10.290Z,-1.27
2018-02-05T21:10:37.778Z,-1.17
2018-02-05T21:13:05.254Z,-1.17
2018-02-05T21:15:32.735Z,-1.14
2018-02-05T21:18:00.199Z,-1.11
2018-02-05T21:20:27.686Z,-1.09
2018-02-05T21:22:55.155Z,-1.11
2018-02-05T21:25:22.635Z,-1.08
2018-02-05T21:27:50.102Z,-1.01
2018-02-05T21:30:17.589Z,-1.03
2018-02-05T21:32:45.050Z,-1.01
2018-02-05T21:35:12.535Z,-1.10
2018-02-05T21:37:40.005Z,-1.12
2018-02-05T21:40:07.507Z,-1.13
2018-02-05T21:42:34.991Z,-1.15
2018-02-05T21:45:02.470Z,-1.18
2018-02-05T21:47:29.938Z,-1.12
2018-02-05T21:49:57.423Z,-1.06
2018-02-05T21:52:24.892Z,-1.08
2018-02-05T21:54:52.374Z,-1.14
2018-02-05T21:57:19.845Z,-1.18
2018-02-05T21:59:47.322Z,-1.20
2018-02-05T22:02:14.790Z,-1.24
2018-02-05T22:04:42.279Z,-1.27
2018-02-05T22:07:09.754Z,-1.35
2018-02-05T22:09:37.239Z,-1.44
2018-02-05T22:12:04.708Z,-1.44
2018-02-05T22:14:32.194Z,-1.41
2018-02-05T22:16:59.679Z,-1.48
2018-02-05T22:19:27.146Z,-1.51
2018-02-05T22:21:54.639Z,-1.59
2018-02-05T22:24:22.457Z,-1.65
2018-02-05T22:26:49.938Z,-1.63
2018-02-05T22:29:17.403Z,-1.69
2018-02-05T22:31:46.787Z,-1.78
2018-02-05T22:34:14.276Z,-1.71
2018-02-05T22:36:41.761Z,-1.72
2018-02-05T22:39:11.350Z,-1.69
2018-02-05T22:41:58.826Z,-1.74
2018-02-05T22:44:26.308Z,-1.70
2018-02-05T22:46:53.793Z,-1.65
2018-02-05T22:51:55.114Z,-1.72
2018-02-05T22:54:22.574Z,-1.75
2018-02-05T22:56:50.059Z,-1.70
2018-02-05T22:59:17.528Z,-1.68
2018-02-05T23:01:45.023Z,-1.68
2018-02-05T23:04:12.498Z,-1.70
2018-02-05T23:06:39.980Z,-1.77
2018-02-05T23:09:07.451Z,-1.86
2018-02-05T23:11:34.940Z,-1.84
2018-02-05T23:14:02.419Z,-1.93
2018-02-05T23:16:29.908Z,-2.03
2018-02-05T23:18:57.371Z,-1.94
2018-02-05T23:21:24.867Z,-1.95
2018-02-05T23:24:12.814Z,-1.92
2018-02-05T23:26:40.308Z,-1.94
2018-02-05T23:29:07.776Z,-1.99
2018-02-05T23:31:35.260Z,-2.00
2018-02-05T23:34:02.730Z,-2.02
2018-02-05T23:36:30.219Z,-2.06
2018-02-05T23:38:57.687Z,-2.05
2018-02-05T23:41:25.168Z,-2.02
2018-02-05T23:43:52.630Z,-2.04
2018-02-05T23:46:20.115Z,-2.05
2018-02-05T23:48:47.675Z,-2.08
2018-02-05T23:51:15.165Z,-2.10
2018-02-05T23:53:42.642Z,-2.10
2018-02-05T23:56:10.136Z,-2.06
2018-02-05T23:58:37.614Z,-2.11
